Warren, Connecticut
Current Conditions -  °F | °C
As of 6:15 AM on Saturday 22 Nov 2014 (Local Time) from KOXC Reporting Station
Clear Clear  
Wind Chill: -7°   Ceiling: Unl
Heat Index: -7°   Visibility: 10mi
Dew Point: -14°   Wind: 3mph
Humidity: 58%   Direction: 240°WSW
Pressure: 30.43"   Gusts: NA
Location:  41.6879°N, 73.3378°W
Report Text: KOXC 221015Z 24003KT 10SM CLR M07/M14 A3043 RMK AO1
Loading
Personal Weather Stations






























Interactive Weather Map New forecast layout! Learn more

10-Day Weather Forecast

Advertisements
Track Severe Weather on mobile